Time;durP1;ratioP1;P1;durP2;ratioP2;P2;SDS_P1;SDS_P2;PMS_P1;PMS_P2;Temp;Humidity;BMP_temperature;BMP_pressure;BME280_temperature;BME280_humidity;BME280_pressure;Samples;Min_cycle;Max_cycle;Signal;HPM_P1;HPM_P2
2022/05/24 04:33:26;;;;;;;;;1.00;1.00;;;;;13.25;69.58;100321.56;5037329;28;45940;-61
2022/05/24 04:35:52;;;;;;;;;1.00;0.00;;;;;13.15;69.62;100317.72;5038318;28;45703;-58
2022/05/24 04:38:18;;;;;;;;;2.00;1.00;;;;;13.26;69.72;100336.75;5038065;28;45469;-60
2022/05/24 04:43:27;;;;;;;;;0.00;0.00;;;;;13.12;69.27;100316.03;5038968;28;45396;-60
2022/05/24 04:45:55;;;;;;;;;1.00;1.00;;;;;13.17;69.29;100343.59;5038498;28;45310;-59
2022/05/24 04:48:21;;;;;;;;;2.00;1.00;;;;;13.21;69.20;100353.19;5038188;28;46139;-60
2022/05/24 04:50:51;;;;;;;;;0.00;0.00;;;;;13.15;69.17;100367.03;5038515;28;45356;-59
2022/05/24 04:53:16;;;;;;;;;1.00;0.00;;;;;12.98;69.24;100342.97;5038426;28;45313;-59
2022/05/24 04:55:42;;;;;;;;;0.50;0.00;;;;;13.10;69.37;100358.31;5038366;28;45382;-59
2022/05/24 04:58:09;;;;;;;;;0.50;0.50;;;;;13.08;69.19;100348.63;5038383;28;45986;-60
2022/05/24 05:00:35;;;;;;;;;2.00;1.00;;;;;13.10;69.01;100357.50;5038398;28;45328;-61
2022/05/24 05:03:07;;;;;;;;;0.00;0.00;;;;;13.11;68.95;100351.13;5020828;28;45362;-59
2022/05/24 05:05:32;;;;;;;;;0.00;0.00;;;;;13.18;69.18;100371.38;5038177;28;45360;-60
2022/05/24 05:07:57;;;;;;;;;0.50;0.50;;;;;13.13;68.77;100363.56;5038010;28;46224;-60
2022/05/24 05:10:23;;;;;;;;;0.25;0.25;;;;;13.20;69.41;100380.19;5038382;28;45304;-59
2022/05/24 05:12:48;;;;;;;;;1.00;1.00;;;;;13.15;68.75;100380.50;5038398;28;45386;-60
2022/05/24 05:15:15;;;;;;;;;0.25;0.25;;;;;13.15;68.89;100380.50;5038402;28;45262;-60
2022/05/24 05:17:40;;;;;;;;;0.00;0.00;;;;;13.13;68.99;100385.09;5037105;28;45405;-60
2022/05/24 05:20:06;;;;;;;;;0.25;0.25;;;;;13.14;69.29;100372.50;5038243;28;45400;-61
2022/05/24 05:22:31;;;;;;;;;1.00;1.00;;;;;13.15;69.33;100382.31;5037981;28;45240;-60
2022/05/24 05:24:57;;;;;;;;;0.00;0.00;;;;;13.09;68.99;100386.22;5030967;28;45465;-53
2022/05/24 05:27:22;;;;;;;;;2.00;0.00;;;;;13.08;69.46;100389.88;5020999;28;45260;-50
2022/05/24 05:32:32;;;;;;;;;2.00;1.00;;;;;13.05;69.56;100391.88;5041390;28;45234;-53
2022/05/24 05:34:58;;;;;;;;;1.00;1.00;;;;;13.12;69.25;100404.84;5041405;28;45538;-53
2022/05/24 05:37:27;;;;;;;;;2.00;0.00;;;;;13.15;69.06;100406.53;5041099;28;45273;-52
2022/05/24 05:39:53;;;;;;;;;1.00;1.00;;;;;13.17;69.19;100413.56;5041329;28;45379;-51
2022/05/24 05:42:19;;;;;;;;;1.00;1.00;;;;;13.25;68.75;100416.66;5041363;28;45428;-54
2022/05/24 05:44:45;;;;;;;;;1.00;1.00;;;;;13.21;68.87;100422.31;5040895;28;45281;-54
2022/05/24 05:47:10;;;;;;;;;0.00;0.00;;;;;13.25;69.09;100427.41;5040973;28;45633;-54
2022/05/24 05:49:36;;;;;;;;;1.50;0.00;;;;;13.21;69.21;100395.38;5041245;28;45341;-52
2022/05/24 05:52:01;;;;;;;;;1.00;0.00;;;;;13.13;68.49;100398.56;5040869;28;45502;-51
2022/05/24 05:54:26;;;;;;;;;2.00;0.25;;;;;13.25;68.60;100432.81;5041189;28;45321;-52
2022/05/24 05:56:52;;;;;;;;;0.00;0.00;;;;;13.20;68.62;100429.50;5040923;28;47109;-53
2022/05/24 05:59:18;;;;;;;;;1.00;1.00;;;;;13.22;68.30;100429.41;5040335;28;45333;-50
2022/05/24 06:01:43;;;;;;;;;0.00;0.00;;;;;13.24;68.22;100436.44;5041018;28;45250;-59
2022/05/24 06:04:09;;;;;;;;;0.00;0.00;;;;;13.27;68.31;100438.06;5040377;28;45542;-59
2022/05/24 06:06:40;;;;;;;;;1.25;1.00;;;;;13.23;68.54;100442.78;5039766;28;46404;-62
2022/05/24 06:09:05;;;;;;;;;2.00;1.00;;;;;13.25;68.15;100438.19;5040766;28;45363;-60
2022/05/24 06:11:31;;;;;;;;;0.00;0.00;;;;;13.23;68.37;100448.19;5040912;28;45245;-60
2022/05/24 06:13:56;;;;;;;;;1.00;1.00;;;;;13.30;67.91;100447.78;5040588;28;45360;-60
2022/05/24 06:16:22;;;;;;;;;1.00;0.00;;;;;13.31;67.81;100458.47;5040777;28;45967;-60
2022/05/24 06:18:47;;;;;;;;;1.00;1.00;;;;;13.25;68.01;100448.09;5022963;28;45362;-60
2022/05/24 06:21:13;;;;;;;;;0.00;0.00;;;;;13.28;67.92;100453.25;5040866;28;45554;-60
2022/05/24 06:23:38;;;;;;;;;1.00;1.00;;;;;13.35;68.23;100461.84;5040310;28;45431;-59
2022/05/24 06:26:04;;;;;;;;;1.00;1.00;;;;;13.43;68.16;100464.94;5024589;28;45423;-61
2022/05/24 06:28:29;;;;;;;;;1.00;1.00;;;;;13.50;66.91;100485.13;5002946;28;45345;-59
2022/05/24 06:30:55;;;;;;;;;2.00;1.00;;;;;13.54;67.26;100475.88;5020717;28;45726;-60
2022/05/24 06:33:21;;;;;;;;;1.00;1.00;;;;;13.61;66.60;100478.09;5020489;28;45480;-60
2022/05/24 06:35:46;;;;;;;;;1.00;1.00;;;;;13.73;66.78;100472.91;5020395;28;45313;-60
2022/05/24 06:38:12;;;;;;;;;0.00;0.00;;;;;13.75;65.40;100460.22;5018763;28;45373;-60
2022/05/24 06:40:37;;;;;;;;;0.75;0.75;;;;;13.81;65.49;100479.53;5020931;28;45458;-60
2022/05/24 06:43:03;;;;;;;;;1.00;1.00;;;;;13.70;65.82;100456.91;5036454;28;45318;-61
2022/05/24 06:45:30;;;;;;;;;0.75;0.75;;;;;13.92;65.64;100482.44;5035976;28;46460;-59
2022/05/24 06:47:55;;;;;;;;;0.00;0.00;;;;;13.93;64.76;100470.69;5038820;28;45286;-60
2022/05/24 06:50:21;;;;;;;;;1.00;1.00;;;;;13.94;65.13;100482.34;5037658;28;45324;-61
2022/05/24 06:52:47;;;;;;;;;1.00;1.00;;;;;13.97;65.41;100488.38;5036820;28;45290;-60
2022/05/24 06:55:13;;;;;;;;;1.00;0.00;;;;;13.94;64.22;100485.91;5035759;28;46538;-60
2022/05/24 06:57:39;;;;;;;;;2.00;0.00;;;;;13.93;64.83;100494.94;5038501;28;46062;-60
2022/05/24 07:03:10;;;;;;;;;1.00;1.00;;;;;13.99;64.76;100483.75;4997732;28;45310;-60
2022/05/24 07:05:36;;;;;;;;;0.00;0.00;;;;;14.13;64.61;100504.44;5032112;28;45309;-59
2022/05/24 07:08:02;;;;;;;;;0.75;0.75;;;;;13.95;63.83;100481.38;5039819;28;45784;-59
2022/05/24 07:10:29;;;;;;;;;0.25;0.25;;;;;14.09;63.91;100508.31;5040349;28;45370;-60
2022/05/24 07:13:10;;;;;;;;;0.50;0.50;;;;;14.14;63.04;100508.00;5021811;28;45334;-60
2022/05/24 07:15:37;;;;;;;;;1.00;1.00;;;;;14.15;63.39;100504.34;5021848;28;46294;-60
2022/05/24 07:18:03;;;;;;;;;0.75;0.75;;;;;14.00;63.57;100485.50;5022338;28;45402;-60
2022/05/24 07:20:29;;;;;;;;;1.50;0.00;;;;;14.24;63.52;100507.31;5039864;28;45393;-60
2022/05/24 07:23:16;;;;;;;;;2.25;1.00;;;;;14.34;63.03;100510.28;5039454;28;45172;-60
2022/05/24 07:25:42;;;;;;;;;0.50;0.50;;;;;14.34;62.17;100521.06;5027724;28;47112;-59
2022/05/24 07:28:09;;;;;;;;;0.00;0.00;;;;;14.33;61.90;100513.94;5019548;28;45294;-60
2022/05/24 07:30:35;;;;;;;;;1.50;1.00;;;;;14.34;62.06;100516.53;5019857;28;45485;-60
2022/05/24 07:33:00;;;;;;;;;1.00;1.00;;;;;14.41;62.12;100513.47;5018796;28;45559;-60
2022/05/24 07:35:26;;;;;;;;;0.00;0.00;;;;;14.42;62.35;100507.09;5019678;28;46226;-60
2022/05/24 07:37:51;;;;;;;;;1.00;1.00;;;;;14.49;61.69;100520.09;5001608;28;45428;-60
2022/05/24 07:48:10;;;;;;;;;0.00;0.00;;;;;14.64;60.21;100521.78;5039617;28;45226;-59
2022/05/24 07:50:36;;;;;;;;;1.00;1.00;;;;;14.68;60.19;100511.66;5038148;28;45257;-59
2022/05/24 07:53:02;;;;;;;;;1.00;1.00;;;;;14.80;60.41;100528.88;5038994;28;45400;-59
2022/05/24 07:55:28;;;;;;;;;1.00;1.00;;;;;14.79;58.43;100529.84;5039261;28;45360;-59
2022/05/24 07:57:53;;;;;;;;;0.50;0.50;;;;;14.80;57.59;100524.31;5039166;28;45331;-59
2022/05/24 08:00:19;;;;;;;;;0.00;0.00;;;;;14.76;58.66;100523.66;5039273;28;45323;-59
2022/05/24 08:02:44;;;;;;;;;0.25;0.25;;;;;14.61;58.37;100497.72;5039216;28;45321;-60
2022/05/24 08:05:10;;;;;;;;;2.00;0.00;;;;;14.77;58.40;100532.63;5038737;28;48089;-59
2022/05/24 08:07:36;;;;;;;;;1.00;1.00;;;;;14.84;59.12;100530.38;5038971;28;45408;-59
2022/05/24 08:10:04;;;;;;;;;2.00;1.00;;;;;14.92;58.75;100528.91;5039034;28;45356;-59
2022/05/24 08:12:29;;;;;;;;;2.00;0.00;;;;;15.02;57.81;100524.63;5038979;28;45385;-60
2022/05/24 08:14:55;;;;;;;;;1.00;1.00;;;;;15.13;58.25;100530.16;5038793;28;45351;-59
2022/05/24 08:17:20;;;;;;;;;1.00;1.00;;;;;15.09;58.07;100506.16;5038891;28;45392;-59
2022/05/24 08:19:45;;;;;;;;;0.25;0.25;;;;;15.24;56.91;100518.59;5038955;28;45387;-58
2022/05/24 08:22:11;;;;;;;;;2.50;0.00;;;;;15.30;55.63;100523.59;5020724;28;45396;-59
2022/05/24 08:24:36;;;;;;;;;1.25;1.25;;;;;15.21;56.22;100512.56;5034819;28;45281;-59
2022/05/24 08:27:02;;;;;;;;;0.75;0.75;;;;;15.35;55.78;100537.63;5019111;28;45511;-59
2022/05/24 08:29:27;;;;;;;;;1.00;1.00;;;;;15.33;55.88;100522.50;5018881;28;45345;-59
2022/05/24 08:31:52;;;;;;;;;1.00;1.00;;;;;15.39;55.71;100524.81;5018588;28;45925;-59
2022/05/24 08:34:19;;;;;;;;;1.75;0.00;;;;;15.23;55.93;100506.06;5018584;28;45349;-59
2022/05/24 08:36:45;;;;;;;;;2.00;0.00;;;;;15.38;55.85;100518.53;5018483;28;45428;-59
2022/05/24 08:39:11;;;;;;;;;1.00;1.00;;;;;15.43;55.00;100529.88;5018649;28;45287;-60
2022/05/24 08:41:58;;;;;;;;;1.00;1.00;;;;;15.47;54.47;100535.94;5010851;28;45429;-60
2022/05/24 08:50:06;;;;;;;;;0.25;0.00;;;;;15.72;54.49;100524.31;5038692;28;45523;-59
2022/05/24 08:52:57;;;;;;;;;1.00;1.00;;;;;15.79;52.32;100529.16;5038138;28;46636;-58
2022/05/24 08:55:24;;;;;;;;;1.00;1.00;;;;;15.78;53.31;100532.84;5031107;28;48041;-59
2022/05/24 08:57:56;;;;;;;;;0.50;0.50;;;;;15.78;52.84;100524.72;5038320;28;45564;-58
2022/05/24 09:00:26;;;;;;;;;1.75;1.00;;;;;15.78;53.60;100526.56;5037891;28;45335;-60
2022/05/24 09:02:52;;;;;;;;;1.25;1.25;;;;;15.80;53.80;100524.63;5041992;28;45495;-59
2022/05/24 09:05:22;;;;;;;;;0.75;0.75;;;;;15.99;54.16;100527.72;5041552;28;47075;-60
2022/05/24 09:08:08;;;;;;;;;1.00;1.00;;;;;16.13;51.99;100535.72;5041593;28;45373;-59
2022/05/24 09:11:08;;;;;;;;;0.50;0.50;;;;;16.13;51.94;100532.16;5042022;28;45276;-60
2022/05/24 09:14:09;;;;;;;;;0.75;0.75;;;;;16.15;53.16;100524.81;4981423;28;45319;-59
2022/05/24 09:16:45;;;;;;;;;0.00;0.00;;;;;16.12;52.04;100522.31;5013889;28;45436;-60
2022/05/24 09:19:22;;;;;;;;;2.50;1.00;;;;;16.21;53.01;100532.47;5041589;28;45391;-60
2022/05/24 09:21:52;;;;;;;;;1.00;1.00;;;;;16.28;52.17;100531.03;5041401;28;45291;-59
2022/05/24 09:24:26;;;;;;;;;2.00;0.50;;;;;16.36;51.45;100539.47;5039825;28;45272;-59
2022/05/24 09:27:10;;;;;;;;;1.00;1.00;;;;;16.40;50.09;100534.72;5020793;28;45483;-58
2022/05/24 09:29:54;;;;;;;;;2.00;1.00;;;;;16.38;49.56;100534.81;5021580;28;45239;-59
2022/05/24 09:32:22;;;;;;;;;0.25;0.25;;;;;16.39;49.32;100536.53;5021050;28;45445;-60
2022/05/24 09:35:05;;;;;;;;;2.25;1.00;;;;;16.31;49.00;100520.00;5021682;28;45222;-59
2022/05/24 09:37:30;;;;;;;;;0.00;0.00;;;;;16.39;49.14;100541.97;5021029;28;47434;-58
2022/05/24 09:40:15;;;;;;;;;0.00;0.00;;;;;16.40;49.93;100546.41;5020468;28;45465;-58
2022/05/24 09:42:41;;;;;;;;;3.75;0.75;;;;;16.42;51.01;100544.41;5027400;28;45345;-60
2022/05/24 09:45:13;;;;;;;;;2.50;1.00;;;;;16.44;49.31;100538.91;5041263;28;45283;-58
2022/05/24 09:47:38;;;;;;;;;1.50;1.50;;;;;16.44;49.22;100550.59;5041165;28;46182;-59
2022/05/24 09:50:33;;;;;;;;;0.50;0.50;;;;;16.40;48.46;100553.66;5041247;28;45289;-58
2022/05/24 09:53:22;;;;;;;;;1.00;1.00;;;;;16.18;49.43;100517.31;5040912;28;45371;-58
2022/05/24 09:55:59;;;;;;;;;1.00;1.00;;;;;16.43;49.98;100548.00;5040995;28;45285;-58
2022/05/24 09:58:39;;;;;;;;;1.75;1.75;;;;;16.51;48.86;100564.53;5040801;28;47168;-58
2022/05/24 10:01:08;;;;;;;;;0.00;0.00;;;;;16.55;48.38;100552.50;5040950;28;45261;-58
2022/05/24 10:03:38;;;;;;;;;1.00;1.00;;;;;16.59;48.63;100562.13;5040947;28;45316;-59
2022/05/24 10:06:29;;;;;;;;;2.00;0.00;;;;;16.52;49.09;100550.88;5040975;28;45331;-58
2022/05/24 10:09:00;;;;;;;;;1.25;0.25;;;;;16.60;49.08;100553.91;5040930;28;46359;-58
2022/05/24 10:11:31;;;;;;;;;3.00;2.00;;;;;16.46;49.21;100540.53;5040898;28;45324;-58
2022/05/24 10:14:22;;;;;;;;;3.00;1.75;;;;;16.61;49.27;100557.50;5040065;28;45383;-58
2022/05/24 10:17:05;;;;;;;;;2.00;2.00;;;;;16.51;48.75;100551.88;5040005;28;45527;-58
2022/05/24 10:19:49;;;;;;;;;0.50;0.00;;;;;16.52;48.31;100556.31;5040902;28;45412;-59
2022/05/24 10:22:36;;;;;;;;;1.00;1.00;;;;;16.52;48.03;100568.97;5039959;28;45322;-58
2022/05/24 10:25:01;;;;;;;;;1.00;1.00;;;;;16.48;48.75;100573.75;5034888;28;45143;-56
2022/05/24 10:27:45;;;;;;;;;2.00;1.00;;;;;16.52;48.33;100567.13;5021596;28;45238;-59
2022/05/24 10:30:19;;;;;;;;;0.00;0.00;;;;;16.58;48.25;100565.84;5021784;28;45382;-57
2022/05/24 10:39:21;;;;;;;;;1.00;1.00;;;;;16.79;48.11;100563.41;5020386;28;45355;-58
2022/05/24 10:41:58;;;;;;;;;2.00;2.00;;;;;16.86;48.35;100559.25;5020423;28;45324;-58
2022/05/24 10:44:39;;;;;;;;;2.00;1.00;;;;;16.82;48.07;100560.47;5020264;28;45408;-58
2022/05/24 10:47:30;;;;;;;;;2.00;1.25;;;;;16.89;47.82;100576.13;5020902;28;45247;-58
2022/05/24 10:50:03;;;;;;;;;3.00;0.75;;;;;16.91;47.97;100557.94;5020746;28;45195;-57
2022/05/24 10:53:03;;;;;;;;;1.00;1.00;;;;;16.90;46.85;100575.16;5020955;28;45457;-58
2022/05/24 10:55:45;;;;;;;;;1.50;1.00;;;;;16.93;47.04;100571.34;5000012;28;45304;-59
2022/05/24 10:58:17;;;;;;;;;0.00;0.00;;;;;16.91;47.25;100576.03;5021305;28;45159;-58
2022/05/24 11:00:44;;;;;;;;;2.75;2.00;;;;;16.95;47.92;100572.97;5019568;28;45532;-58
2022/05/24 11:03:13;;;;;;;;;1.00;1.00;;;;;16.93;47.30;100553.25;5020184;28;45385;-59
2022/05/24 11:05:43;;;;;;;;;3.00;1.25;;;;;16.94;46.50;100586.63;5020135;28;45383;-58
2022/05/24 11:08:41;;;;;;;;;1.00;1.00;;;;;16.91;46.86;100565.19;5019937;28;45331;-57
2022/05/24 11:11:30;;;;;;;;;1.75;1.50;;;;;16.97;47.21;100575.56;5019788;28;45418;-58
2022/05/24 11:14:15;;;;;;;;;0.00;0.00;;;;;17.14;47.39;100566.16;5030589;28;46233;-60
2022/05/24 11:16:50;;;;;;;;;1.00;1.00;;;;;17.23;46.19;100558.19;5039955;28;45406;-57
2022/05/24 11:19:22;;;;;;;;;0.50;0.50;;;;;17.36;46.18;100566.25;5039797;28;45455;-59
2022/05/24 11:22:28;;;;;;;;;2.75;1.00;;;;;17.50;46.37;100562.47;5039637;28;45947;-58
2022/05/24 11:24:53;;;;;;;;;0.00;0.00;;;;;17.58;44.90;100566.31;5009804;28;47203;-59
2022/05/24 11:27:37;;;;;;;;;1.75;1.00;;;;;17.52;46.11;100579.50;5019643;28;45259;-57
2022/05/24 11:30:30;;;;;;;;;0.75;0.75;;;;;17.46;45.14;100575.41;5019983;28;45338;-59
2022/05/24 11:33:05;;;;;;;;;2.00;0.25;;;;;17.36;45.13;100563.53;5019074;28;45317;-59
2022/05/24 11:35:38;;;;;;;;;1.00;1.00;;;;;17.33;45.17;100559.22;5019577;28;46993;-58
2022/05/24 11:38:35;;;;;;;;;0.75;0.75;;;;;17.36;45.27;100572.53;5018490;28;45353;-60
2022/05/24 11:41:19;;;;;;;;;1.00;0.00;;;;;17.38;45.66;100553.44;5001865;28;45382;-59
2022/05/24 11:43:44;;;;;;;;;0.50;0.50;;;;;17.60;46.46;100558.09;5019335;28;45429;-58
2022/05/24 11:46:34;;;;;;;;;0.00;0.00;;;;;17.82;45.80;100562.69;5019715;28;46334;-58
2022/05/24 11:49:05;;;;;;;;;1.00;1.00;;;;;17.93;44.03;100550.03;5019497;28;45479;-59
2022/05/24 11:51:34;;;;;;;;;0.00;0.00;;;;;18.01;44.61;100550.28;5001569;28;45405;-58
2022/05/24 11:54:25;;;;;;;;;2.00;0.00;;;;;18.05;43.73;100546.31;5019261;28;45592;-58
2022/05/24 11:57:01;;;;;;;;;0.00;0.00;;;;;18.08;43.86;100556.94;5000648;28;45546;-59
2022/05/24 11:59:38;;;;;;;;;2.50;1.00;;;;;17.99;43.80;100548.66;5039403;28;45392;-58
2022/05/24 12:02:19;;;;;;;;;3.00;0.00;;;;;17.96;43.79;100567.88;5039414;28;45234;-59
2022/05/24 12:07:54;;;;;;;;;0.75;0.75;;;;;17.92;44.08;100551.00;5038964;28;45366;-58
2022/05/24 12:10:24;;;;;;;;;0.25;0.25;;;;;17.96;44.43;100559.75;5038956;28;45213;-58
2022/05/24 12:12:52;;;;;;;;;1.00;1.00;;;;;17.98;45.58;100563.22;5038963;28;45515;-59
2022/05/24 12:15:21;;;;;;;;;2.00;2.00;;;;;17.94;46.29;100567.16;5039173;28;45373;-59
2022/05/24 12:18:11;;;;;;;;;3.00;1.00;;;;;17.91;46.46;100573.69;5038802;28;46402;-58
2022/05/24 12:20:37;;;;;;;;;0.00;0.00;;;;;17.91;45.80;100570.97;5038987;28;45321;-59
2022/05/24 12:23:09;;;;;;;;;0.00;0.00;;;;;17.98;45.16;100579.50;5038821;28;45467;-58
2022/05/24 12:25:59;;;;;;;;;0.00;0.00;;;;;18.04;44.98;100568.13;5026969;28;46023;-58
2022/05/24 12:28:43;;;;;;;;;0.00;0.00;;;;;18.14;44.69;100572.72;5027159;28;46227;-59
2022/05/24 12:31:23;;;;;;;;;1.00;0.50;;;;;18.17;44.05;100563.47;5038604;28;45270;-59
2022/05/24 12:34:08;;;;;;;;;0.00;0.00;;;;;18.22;43.61;100571.22;5038849;28;45503;-58
2022/05/24 12:36:41;;;;;;;;;0.00;0.00;;;;;18.33;43.10;100569.41;5037648;28;45490;-58
2022/05/24 12:39:06;;;;;;;;;0.00;0.00;;;;;18.58;44.11;100572.84;5037923;28;46322;-57
2022/05/24 12:41:37;;;;;;;;;2.00;0.00;;;;;18.80;41.40;100560.09;5038711;28;45479;-59
2022/05/24 12:44:21;;;;;;;;;2.00;0.00;;;;;19.04;41.93;100564.50;5038693;28;45328;-60
2022/05/24 12:46:52;;;;;;;;;0.50;0.00;;;;;19.26;41.61;100550.81;5038005;28;45586;-58
2022/05/24 12:49:21;;;;;;;;;0.25;0.25;;;;;19.37;41.81;100553.47;5038558;28;45364;-59
2022/05/24 12:51:47;;;;;;;;;0.00;0.00;;;;;19.22;41.57;100547.47;5038245;28;45503;-58
2022/05/24 12:54:18;;;;;;;;;0.00;0.00;;;;;19.24;41.31;100550.91;5038816;28;45294;-58
2022/05/24 12:57:04;;;;;;;;;0.00;0.00;;;;;19.36;41.83;100551.75;5038287;28;45492;-58
2022/05/24 12:59:40;;;;;;;;;0.00;0.00;;;;;19.43;39.42;100557.50;5038419;28;46572;-57
2022/05/24 13:02:21;;;;;;;;;0.00;0.00;;;;;19.44;39.18;100549.22;5038245;28;45379;-56
2022/05/24 13:04:47;;;;;;;;;0.00;0.00;;;;;19.47;39.00;100538.13;5037668;28;45278;-57
2022/05/24 13:07:35;;;;;;;;;0.00;0.00;;;;;19.71;39.15;100539.72;5038146;28;45366;-57
2022/05/24 13:10:02;;;;;;;;;0.00;0.00;;;;;19.89;38.66;100530.81;5037646;28;46307;-55
2022/05/24 13:12:28;;;;;;;;;0.00;0.00;;;;;20.14;38.58;100528.63;5019946;28;45349;-57
2022/05/24 13:15:02;;;;;;;;;0.00;0.00;;;;;20.46;38.92;100537.53;5038072;28;45515;-56
2022/05/24 13:17:37;;;;;;;;;1.00;1.00;;;;;20.78;37.99;100540.91;5038451;28;45369;-57
2022/05/24 13:20:06;;;;;;;;;0.00;0.00;;;;;20.81;37.94;100550.66;5038003;28;46642;-56
2022/05/24 13:22:44;;;;;;;;;2.00;0.00;;;;;20.86;38.77;100556.53;5037923;28;45320;-57
2022/05/24 13:25:14;;;;;;;;;0.25;0.25;;;;;20.93;38.57;100545.94;5029533;28;45318;-55
2022/05/24 13:27:58;;;;;;;;;0.75;0.75;;;;;20.93;38.50;100533.16;5018020;28;45324;-56
2022/05/24 13:33:48;;;;;;;;;0.00;0.00;;;;;21.37;38.29;100552.72;5028118;28;45305;-55
2022/05/24 13:36:16;;;;;;;;;0.00;0.00;;;;;21.53;36.77;100536.63;5036896;28;45270;-55
2022/05/24 13:38:44;;;;;;;;;0.00;0.00;;;;;21.74;36.39;100531.88;5037966;28;45506;-55
2022/05/24 13:41:12;;;;;;;;;0.00;0.00;;;;;21.85;35.90;100537.16;5037822;28;46122;-56
2022/05/24 13:43:44;;;;;;;;;0.50;0.50;;;;;21.89;34.21;100562.28;5037808;28;45475;-56
2022/05/24 13:46:21;;;;;;;;;0.00;0.00;;;;;21.78;33.92;100563.31;5037888;28;45293;-57
2022/05/24 13:48:56;;;;;;;;;0.00;0.00;;;;;21.73;33.77;100549.25;5040464;28;45408;-57
2022/05/24 13:51:27;;;;;;;;;0.00;0.00;;;;;21.78;33.40;100551.53;5041120;28;45407;-58
2022/05/24 13:53:54;;;;;;;;;0.00;0.00;;;;;21.82;34.12;100550.25;5041181;28;45310;-61
2022/05/24 13:56:23;;;;;;;;;0.00;0.00;;;;;22.03;32.95;100550.09;5041026;28;45407;-59
2022/05/24 13:59:18;;;;;;;;;1.50;0.00;;;;;22.17;32.95;100544.13;5040901;28;45300;-58
2022/05/24 14:01:44;;;;;;;;;0.00;0.00;;;;;22.38;33.18;100550.22;5040747;28;46256;-57
2022/05/24 14:04:17;;;;;;;;;0.00;0.00;;;;;22.56;33.04;100555.72;5040849;28;45359;-59
2022/05/24 14:06:51;;;;;;;;;0.00;0.00;;;;;22.67;32.76;100561.00;5040685;28;45446;-59
2022/05/24 14:09:17;;;;;;;;;1.00;0.00;;;;;22.75;32.41;100554.81;5040264;28;45560;-59
2022/05/24 14:11:56;;;;;;;;;0.00;0.00;;;;;22.87;32.86;100559.91;5040629;28;46143;-59
2022/05/24 14:14:23;;;;;;;;;0.00;0.00;;;;;22.87;32.66;100548.97;5040680;28;45444;-58
2022/05/24 14:16:50;;;;;;;;;0.00;0.00;;;;;22.75;32.38;100550.19;5040911;28;45403;-58
2022/05/24 14:19:16;;;;;;;;;0.00;0.00;;;;;22.65;32.46;100552.94;5040658;28;45603;-58
2022/05/24 14:21:42;;;;;;;;;0.00;0.00;;;;;22.40;32.03;100566.47;5040217;28;45900;-58
2022/05/24 14:24:13;;;;;;;;;0.75;0.00;;;;;22.10;33.12;100573.91;5040511;28;45360;-58
2022/05/24 14:26:40;;;;;;;;;0.00;0.00;;;;;21.85;33.25;100571.78;5027319;28;45379;-58
2022/05/24 14:29:06;;;;;;;;;0.00;0.00;;;;;21.72;33.78;100560.31;5040229;28;45383;-58
2022/05/24 14:31:32;;;;;;;;;0.00;0.00;;;;;21.67;34.00;100570.81;5039943;28;45345;-59
2022/05/24 14:33:57;;;;;;;;;0.00;0.00;;;;;21.55;34.50;100570.09;5019323;28;45289;-58
2022/05/24 14:36:23;;;;;;;;;1.00;1.00;;;;;21.34;34.95;100585.75;5040344;28;45310;-58
2022/05/24 14:38:48;;;;;;;;;0.00;0.00;;;;;21.19;35.44;100576.25;5040195;28;45264;-58
2022/05/24 14:41:17;;;;;;;;;0.00;0.00;;;;;20.95;34.93;100596.56;5040374;28;45302;-59
2022/05/24 14:44:03;;;;;;;;;0.00;0.00;;;;;20.60;36.11;100561.63;5040223;28;45262;-57
2022/05/24 14:46:30;;;;;;;;;1.50;0.50;;;;;20.54;37.00;100589.44;5040367;28;45343;-58
2022/05/24 14:48:57;;;;;;;;;0.75;0.00;;;;;20.41;37.27;100593.41;5040327;28;45266;-59
2022/05/24 14:51:40;;;;;;;;;0.00;0.00;;;;;20.30;37.92;100586.16;5039868;28;47166;-59
2022/05/24 14:54:06;;;;;;;;;0.25;0.00;;;;;20.25;37.82;100586.53;5039266;28;45323;-58
2022/05/24 14:56:51;;;;;;;;;0.00;0.00;;;;;20.29;38.00;100585.28;5040029;28;45495;-58
2022/05/24 14:59:17;;;;;;;;;0.00;0.00;;;;;20.30;37.81;100588.88;5038696;28;45541;-59
2022/05/24 15:01:43;;;;;;;;;0.50;0.00;;;;;20.38;37.78;100584.50;5039780;28;46297;-58
2022/05/24 15:04:10;;;;;;;;;0.00;0.00;;;;;20.76;38.02;100586.47;5039529;28;45406;-57
2022/05/24 15:06:38;;;;;;;;;0.00;0.00;;;;;21.28;36.62;100583.59;5038953;28;45404;-57
2022/05/24 15:17:23;;;;;;;;;0.00;0.00;;;;;22.29;34.82;100593.97;5039797;28;45345;-60
2022/05/24 15:19:49;;;;;;;;;0.00;0.00;;;;;22.41;35.00;100595.50;5039447;28;46246;-58
2022/05/24 15:22:15;;;;;;;;;0.50;0.00;;;;;22.44;34.45;100592.47;5039107;28;45583;-58
2022/05/24 15:24:42;;;;;;;;;0.00;0.00;;;;;22.34;33.90;100597.13;5035198;28;45183;-59
2022/05/24 15:27:09;;;;;;;;;0.00;0.00;;;;;22.06;34.37;100597.03;5019344;28;45364;-58
2022/05/24 15:29:36;;;;;;;;;0.00;0.00;;;;;21.84;34.90;100621.91;5019104;28;45393;-59
2022/05/24 15:32:03;;;;;;;;;0.00;0.00;;;;;21.43;37.49;100647.63;5019159;28;45379;-60
2022/05/24 15:34:29;;;;;;;;;0.50;0.00;;;;;20.91;40.07;100670.59;5018580;28;45452;-59
2022/05/24 15:36:54;;;;;;;;;0.00;0.00;;;;;20.38;41.25;100670.78;5019439;28;45212;-58
2022/05/24 15:39:20;;;;;;;;;0.50;0.00;;;;;19.99;42.75;100686.81;5019027;28;45430;-58
2022/05/24 15:41:45;;;;;;;;;0.00;0.00;;;;;19.49;43.94;100674.81;5019146;28;46119;-57
2022/05/24 15:44:10;;;;;;;;;1.25;0.00;;;;;19.23;44.45;100692.38;5019201;28;45557;-59
2022/05/24 15:46:36;;;;;;;;;0.00;0.00;;;;;19.00;45.20;100686.13;5019628;28;45524;-59
2022/05/24 15:49:02;;;;;;;;;0.00;0.00;;;;;18.93;45.88;100681.34;5019174;28;45519;-59
2022/05/24 15:51:27;;;;;;;;;0.00;0.00;;;;;18.81;45.76;100677.75;5019152;28;45385;-60
2022/05/24 15:53:53;;;;;;;;;0.00;0.00;;;;;18.73;45.99;100681.09;5019471;28;45300;-58
2022/05/24 15:56:19;;;;;;;;;0.00;0.00;;;;;18.60;46.31;100672.22;5016952;28;45341;-59
2022/05/24 15:58:45;;;;;;;;;0.00;0.00;;;;;18.54;46.34;100669.97;5043089;28;45470;-59
2022/05/24 16:01:13;;;;;;;;;1.00;0.00;;;;;18.36;46.57;100661.44;5033193;28;46036;-58
2022/05/24 16:03:41;;;;;;;;;0.00;0.00;;;;;18.60;47.00;100674.06;5032854;28;45301;-58
2022/05/24 16:11:39;;;;;;;;;0.00;0.00;;;;;19.05;46.22;100677.63;5037137;28;45839;-58
2022/05/24 16:14:17;;;;;;;;;0.00;0.00;;;;;19.15;46.46;100665.84;5038712;28;45340;-58
2022/05/24 16:16:43;;;;;;;;;0.00;0.00;;;;;19.42;46.39;100670.84;5038227;28;45460;-59
2022/05/24 16:19:10;;;;;;;;;0.00;0.00;;;;;19.85;45.13;100670.81;5038127;28;45341;-59
2022/05/24 16:21:39;;;;;;;;;1.00;0.00;;;;;20.22;45.09;100664.91;5037664;28;46040;-58
2022/05/24 16:24:05;;;;;;;;;0.00;0.00;;;;;20.58;43.54;100672.63;5036156;28;45534;-59
2022/05/24 16:26:30;;;;;;;;;0.25;0.00;;;;;20.84;43.45;100667.53;5018588;28;45545;-58
2022/05/24 16:28:55;;;;;;;;;0.00;0.00;;;;;21.04;41.68;100666.59;5017648;28;45639;-59
2022/05/24 16:31:21;;;;;;;;;0.00;0.00;;;;;21.17;41.52;100669.13;5017699;28;45461;-59
2022/05/24 16:33:47;;;;;;;;;0.00;0.00;;;;;21.35;41.10;100672.88;5018027;28;45458;-58
2022/05/24 16:36:16;;;;;;;;;1.00;0.00;;;;;21.52;40.84;100682.25;5025639;28;45730;-58
2022/05/24 16:38:43;;;;;;;;;0.00;0.00;;;;;21.42;39.96;100687.69;5037555;28;45400;-59
2022/05/24 16:41:09;;;;;;;;;0.00;0.00;;;;;21.28;39.64;100688.06;5038478;28;46112;-58
2022/05/24 16:43:35;;;;;;;;;0.00;0.00;;;;;21.04;39.83;100688.41;5038340;28;45416;-58
2022/05/24 16:46:01;;;;;;;;;0.00;0.00;;;;;20.96;39.66;100677.34;5038567;28;45360;-58
2022/05/24 16:48:26;;;;;;;;;0.00;0.00;;;;;20.93;39.98;100674.00;5038408;28;45266;-64
2022/05/24 16:50:51;;;;;;;;;0.00;0.00;;;;;21.09;39.56;100677.97;5038453;28;46270;-64
2022/05/24 16:53:34;;;;;;;;;0.00;0.00;;;;;21.24;39.68;100686.66;5038110;28;45451;-64
2022/05/24 16:58:46;;;;;;;;;0.00;0.00;;;;;21.33;39.04;100687.66;5020399;28;45372;-63
2022/05/24 17:01:13;;;;;;;;;0.00;0.00;;;;;21.31;38.79;100687.81;5018018;28;46054;-62
2022/05/24 17:03:39;;;;;;;;;0.00;0.00;;;;;21.05;39.40;100681.09;5017896;28;45367;-62
2022/05/24 17:06:05;;;;;;;;;0.00;0.00;;;;;20.93;39.94;100682.19;5033887;28;45271;-64